Time;durP1;ratioP1;P1;durP2;ratioP2;P2;SDS_P1;SDS_P2;PMS_P1;PMS_P2;Temp;Humidity;BMP_temperature;BMP_pressure;BME280_temperature;BME280_humidity;BME280_pressure;Samples;Min_cycle;Max_cycle;Signal;HPM_P1;HPM_P2
2024/01/15 00:00:23;;;;;;;;;;;;;;;;;;5034209;28;20363;-23
2024/01/15 00:02:49;;;;;;;;;;;;;;;;;;5034771;28;19921;-25
2024/01/15 00:05:15;;;;;;;;;;;;;;;;;;5034794;28;19941;-26
2024/01/15 00:07:41;;;;;;;;;;;;;;;;;;5034731;28;19935;-22
2024/01/15 00:10:07;;;;;;;;;;;;;;;;;;5034657;28;19975;-23
2024/01/15 00:12:33;;;;;;;;;;;;;;;;;;5034641;28;20355;-24
2024/01/15 00:14:59;;;;;;;;;;;;;;;;;;5034662;28;19915;-26
2024/01/15 00:17:25;;;;;;;;;;;;;;;;;;5034831;28;19920;-28
2024/01/15 00:19:51;;;;;;;;;;;;;;;;;;5034587;28;19963;-26
2024/01/15 00:22:17;;;;;;;;;;;;;;;;;;5034551;28;19913;-26
2024/01/15 00:24:43;;;;;;;;;;;;;;;;;;5034649;28;19909;-30
2024/01/15 00:27:09;;;;;;;;;;;;;;;;;;5034524;28;19977;-25
2024/01/15 00:29:35;;;;;;;;;;;;;;;;;;5034548;28;20058;-28
2024/01/15 00:32:01;;;;;;;;;;;;;;;;;;5034478;28;19916;-27
2024/01/15 00:34:27;;;;;;;;;;;;;;;;;;5033489;28;20311;-23
2024/01/15 00:36:53;;;;;;;;;;;;;;;;;;5034560;28;19920;-24
2024/01/15 00:39:19;;;;;;;;;;;;;;;;;;5034411;28;20369;-24
2024/01/15 00:41:45;;;;;;;;;;;;;;;;;;5034437;28;19920;-23
2024/01/15 00:44:11;;;;;;;;;;;;;;;;;;5034559;28;19909;-22
2024/01/15 00:46:36;;;;;;;;;;;;;;;;;;5034408;28;20362;-22
2024/01/15 00:49:03;;;;;;;;;;;;;;;;;;5034345;28;19922;-26
2024/01/15 00:51:29;;;;;;;;;;;;;;;;;;5034402;28;19986;-26
2024/01/15 00:53:55;;;;;;;;;;;;;;;;;;5034600;28;19915;-28
2024/01/15 00:56:20;;;;;;;;;;;;;;;;;;5034543;28;19909;-24
2024/01/15 00:58:46;;;;;;;;;;;;;;;;;;5034515;28;20233;-23
2024/01/15 01:01:12;;;;;;;;;;;;;;;;;;5034263;28;19909;-24
2024/01/15 01:03:38;;;;;;;;;;;;;;;;;;5034027;28;20005;-24
2024/01/15 01:06:04;;;;;;;;;;;;;;;;;;5034199;28;19939;-24
2024/01/15 01:08:30;;;;;;;;;;;;;;;;;;5034231;28;19913;-24
2024/01/15 01:10:56;;;;;;;;;;;;;;;;;;5037540;28;19999;-26
2024/01/15 01:13:22;;;;;;;;;;;;;;;;;;5037963;28;19940;-23
2024/01/15 01:15:48;;;;;;;;;;;;;;;;;;5038143;28;19908;-27
2024/01/15 01:18:14;;;;;;;;;;;;;;;;;;5037726;28;19924;-22
2024/01/15 01:20:40;;;;;;;;;;;;;;;;;;5038103;28;19929;-27
2024/01/15 01:23:06;;;;;;;;;;;;;;;;;;5037710;28;19917;-26
2024/01/15 01:25:32;;;;;;;;;;;;;;;;;;5037860;28;19943;-23
2024/01/15 01:27:58;;;;;;;;;;;;;;;;;;5036675;28;19963;-24
2024/01/15 01:30:24;;;;;;;;;;;;;;;;;;5037896;28;19917;-24
2024/01/15 01:32:50;;;;;;;;;;;;;;;;;;5037859;28;20008;-27
2024/01/15 01:35:16;;;;;;;;;;;;;;;;;;5037755;28;19910;-25
2024/01/15 01:37:42;;;;;;;;;;;;;;;;;;5037363;28;19921;-25
2024/01/15 01:40:08;;;;;;;;;;;;;;;;;;5037443;28;20276;-28
2024/01/15 01:42:34;;;;;;;;;;;;;;;;;;5037382;28;19936;-26
2024/01/15 01:45:00;;;;;;;;;;;;;;;;;;5037563;28;19914;-25
2024/01/15 01:47:26;;;;;;;;;;;;;;;;;;5036873;28;20222;-24
2024/01/15 01:49:52;;;;;;;;;;;;;;;;;;5037326;28;20257;-27
2024/01/15 01:52:18;;;;;;;;;;;;;;;;;;5037227;28;19909;-25
2024/01/15 01:54:44;;;;;;;;;;;;;;;;;;5037504;28;19909;-24
2024/01/15 01:57:10;;;;;;;;;;;;;;;;;;5038123;28;19931;-23
2024/01/15 01:59:36;;;;;;;;;;;;;;;;;;5037182;28;19940;-24
2024/01/15 02:02:02;;;;;;;;;;;;;;;;;;5037252;28;20095;-23
2024/01/15 02:04:28;;;;;;;;;;;;;;;;;;5036841;28;20322;-26
2024/01/15 02:06:54;;;;;;;;;;;;;;;;;;5036992;28;20000;-24
2024/01/15 02:09:20;;;;;;;;;;;;;;;;;;5035991;28;20274;-23
2024/01/15 02:11:46;;;;;;;;;;;;;;;;;;5035925;28;19910;-23
2024/01/15 02:14:12;;;;;;;;;;;;;;;;;;5036749;28;19910;-24
2024/01/15 02:16:38;;;;;;;;;;;;;;;;;;5036798;28;19931;-23
2024/01/15 02:19:04;;;;;;;;;;;;;;;;;;5036995;28;19944;-23
2024/01/15 02:21:31;;;;;;;;;;;;;;;;;;5036810;28;19909;-23
2024/01/15 02:23:57;;;;;;;;;;;;;;;;;;5036548;28;19959;-23
2024/01/15 02:26:23;;;;;;;;;;;;;;;;;;5036585;28;19940;-25
2024/01/15 02:28:49;;;;;;;;;;;;;;;;;;5036622;28;19909;-25
2024/01/15 02:31:15;;;;;;;;;;;;;;;;;;5036787;28;19949;-27
2024/01/15 02:33:42;;;;;;;;;;;;;;;;;;5036476;28;19959;-28
2024/01/15 02:36:08;;;;;;;;;;;;;;;;;;5036488;28;19925;-24
2024/01/15 02:38:34;;;;;;;;;;;;;;;;;;5036344;28;19993;-24
2024/01/15 02:41:00;;;;;;;;;;;;;;;;;;5036413;28;19909;-27
2024/01/15 02:43:26;;;;;;;;;;;;;;;;;;5036548;28;19910;-23
2024/01/15 02:45:51;;;;;;;;;;;;;;;;;;5036427;28;19913;-25
2024/01/15 02:48:17;;;;;;;;;;;;;;;;;;5036237;28;20406;-24
2024/01/15 02:50:43;;;;;;;;;;;;;;;;;;5036164;28;19966;-24
2024/01/15 02:53:09;;;;;;;;;;;;;;;;;;5036036;28;19909;-23
2024/01/15 02:55:35;;;;;;;;;;;;;;;;;;5036039;28;20356;-24
2024/01/15 02:58:01;;;;;;;;;;;;;;;;;;5035897;28;19971;-23
2024/01/15 03:00:27;;;;;;;;;;;;;;;;;;5036010;28;19913;-26
2024/01/15 03:02:53;;;;;;;;;;;;;;;;;;5035918;28;19921;-26
2024/01/15 03:05:20;;;;;;;;;;;;;;;;;;5036125;28;19996;-27
2024/01/15 03:07:46;;;;;;;;;;;;;;;;;;5035753;28;19916;-27
2024/01/15 03:10:12;;;;;;;;;;;;;;;;;;5035724;28;19910;-25
2024/01/15 03:12:38;;;;;;;;;;;;;;;;;;5035989;28;19916;-24
2024/01/15 03:15:03;;;;;;;;;;;;;;;;;;5035893;28;19959;-30
2024/01/15 03:17:29;;;;;;;;;;;;;;;;;;5035643;28;20379;-26
2024/01/15 03:19:55;;;;;;;;;;;;;;;;;;5035665;28;20264;-26
2024/01/15 03:22:21;;;;;;;;;;;;;;;;;;5035538;28;19909;-23
2024/01/15 03:24:47;;;;;;;;;;;;;;;;;;5035555;28;19913;-24
2024/01/15 03:27:13;;;;;;;;;;;;;;;;;;5034447;28;20007;-23
2024/01/15 03:29:39;;;;;;;;;;;;;;;;;;5035687;28;19910;-23
2024/01/15 03:32:05;;;;;;;;;;;;;;;;;;5034787;28;19916;-27
2024/01/15 03:34:31;;;;;;;;;;;;;;;;;;5035279;28;19964;-26
2024/01/15 03:36:58;;;;;;;;;;;;;;;;;;5035209;28;20113;-24
2024/01/15 03:39:24;;;;;;;;;;;;;;;;;;5035313;28;19915;-23
2024/01/15 03:41:50;;;;;;;;;;;;;;;;;;5035135;28;19949;-27
2024/01/15 03:44:16;;;;;;;;;;;;;;;;;;5035427;28;19971;-23
2024/01/15 03:46:42;;;;;;;;;;;;;;;;;;5035395;28;20333;-23
2024/01/15 03:49:08;;;;;;;;;;;;;;;;;;5035315;28;19923;-23
2024/01/15 03:51:34;;;;;;;;;;;;;;;;;;5035060;28;19908;-22
2024/01/15 03:54:00;;;;;;;;;;;;;;;;;;5034999;28;20003;-29
2024/01/15 03:56:26;;;;;;;;;;;;;;;;;;5034993;28;19909;-27
2024/01/15 03:58:52;;;;;;;;;;;;;;;;;;5035410;28;19913;-25
2024/01/15 04:01:18;;;;;;;;;;;;;;;;;;5034879;28;20007;-27
2024/01/15 04:03:44;;;;;;;;;;;;;;;;;;5033608;28;19932;-23
2024/01/15 04:06:10;;;;;;;;;;;;;;;;;;5034848;28;19916;-25
2024/01/15 04:08:36;;;;;;;;;;;;;;;;;;5035046;28;19909;-26
2024/01/15 04:11:01;;;;;;;;;;;;;;;;;;5034776;28;19932;-25
2024/01/15 04:13:27;;;;;;;;;;;;;;;;;;5034875;28;19913;-23
2024/01/15 04:15:53;;;;;;;;;;;;;;;;;;5034766;28;19971;-28
2024/01/15 04:18:19;;;;;;;;;;;;;;;;;;5034888;28;20363;-23
2024/01/15 04:20:45;;;;;;;;;;;;;;;;;;5034644;28;19909;-26
2024/01/15 04:23:11;;;;;;;;;;;;;;;;;;5034512;28;19913;-26
2024/01/15 04:25:37;;;;;;;;;;;;;;;;;;5034591;28;19913;-25
2024/01/15 04:28:03;;;;;;;;;;;;;;;;;;5034801;28;19936;-25
2024/01/15 04:30:29;;;;;;;;;;;;;;;;;;5034515;28;19909;-25
2024/01/15 04:32:55;;;;;;;;;;;;;;;;;;5034570;28;20002;-23
2024/01/15 04:35:22;;;;;;;;;;;;;;;;;;5034603;28;20047;-24
2024/01/15 04:37:48;;;;;;;;;;;;;;;;;;5034767;28;20014;-26
2024/01/15 04:40:14;;;;;;;;;;;;;;;;;;5034409;28;19917;-26
2024/01/15 04:42:40;;;;;;;;;;;;;;;;;;5034335;28;20031;-24
2024/01/15 04:45:06;;;;;;;;;;;;;;;;;;5036564;28;19945;-27
2024/01/15 04:47:32;;;;;;;;;;;;;;;;;;5038499;28;19909;-25
2024/01/15 04:49:58;;;;;;;;;;;;;;;;;;5038328;28;20356;-23
2024/01/15 04:52:24;;;;;;;;;;;;;;;;;;5038472;28;19952;-23
2024/01/15 04:54:50;;;;;;;;;;;;;;;;;;5038453;28;19910;-24
2024/01/15 04:57:16;;;;;;;;;;;;;;;;;;5038130;28;20020;-25
2024/01/15 04:59:42;;;;;;;;;;;;;;;;;;5038256;28;19959;-23
2024/01/15 05:02:08;;;;;;;;;;;;;;;;;;5437323;23;19957;-26
2024/01/15 05:04:34;;;;;;;;;;;;;;;;;;5038278;28;19958;-19
2024/01/15 05:07:00;;;;;;;;;;;;;;;;;;5038097;28;19920;-19
2024/01/15 05:09:26;;;;;;;;;;;;;;;;;;5038206;28;19916;-20
2024/01/15 05:11:52;;;;;;;;;;;;;;;;;;5037727;28;19976;-22
2024/01/15 05:14:18;;;;;;;;;;;;;;;;;;5037861;28;19976;-19
2024/01/15 05:16:44;;;;;;;;;;;;;;;;;;5038056;28;19917;-20
2024/01/15 05:19:10;;;;;;;;;;;;;;;;;;5037806;28;19909;-21
2024/01/15 05:21:36;;;;;;;;;;;;;;;;;;5037759;28;20003;-21
2024/01/15 05:24:02;;;;;;;;;;;;;;;;;;5037639;28;19928;-20
2024/01/15 05:26:28;;;;;;;;;;;;;;;;;;5036988;28;20365;-20
2024/01/15 05:28:54;;;;;;;;;;;;;;;;;;5037772;28;19913;-19
2024/01/15 05:31:20;;;;;;;;;;;;;;;;;;5038162;28;19909;-21
2024/01/15 05:33:46;;;;;;;;;;;;;;;;;;5037365;28;19909;-20
2024/01/15 05:36:12;;;;;;;;;;;;;;;;;;5036365;28;20267;-20
2024/01/15 05:38:38;;;;;;;;;;;;;;;;;;5036379;28;20111;-20
2024/01/15 05:41:04;;;;;;;;;;;;;;;;;;5037523;28;19909;-20
2024/01/15 05:43:30;;;;;;;;;;;;;;;;;;5037387;28;19941;-20
2024/01/15 05:45:56;;;;;;;;;;;;;;;;;;5037605;28;19996;-20
2024/01/15 05:48:22;;;;;;;;;;;;;;;;;;5037281;28;19971;-21
2024/01/15 05:50:48;;;;;;;;;;;;;;;;;;5036014;28;20320;-20
2024/01/15 05:53:15;;;;;;;;;;;;;;;;;;5037546;28;19915;-20
2024/01/15 05:55:41;;;;;;;;;;;;;;;;;;5036356;28;19916;-21
2024/01/15 05:58:07;;;;;;;;;;;;;;;;;;5036963;28;19945;-21
2024/01/15 06:00:35;;;;;;;;;;;;;;;;;;5036935;28;20279;-20
2024/01/15 06:03:01;;;;;;;;;;;;;;;;;;5036524;28;20264;-21
2024/01/15 06:05:27;;;;;;;;;;;;;;;;;;5036892;28;19916;-20
2024/01/15 06:07:53;;;;;;;;;;;;;;;;;;5035797;28;19920;-21
2024/01/15 06:10:19;;;;;;;;;;;;;;;;;;5036903;28;19932;-20
2024/01/15 06:12:45;;;;;;;;;;;;;;;;;;5036775;28;20292;-19
2024/01/15 06:15:11;;;;;;;;;;;;;;;;;;5037326;28;19924;-20
2024/01/15 06:17:37;;;;;;;;;;;;;;;;;;5036427;28;19960;-21
2024/01/15 06:20:04;;;;;;;;;;;;;;;;;;5036441;28;19913;-21
2024/01/15 06:22:33;;;;;;;;;;;;;;;;;;5036763;28;20186;-21
2024/01/15 06:24:59;;;;;;;;;;;;;;;;;;5036648;28;19909;-20
2024/01/15 06:27:25;;;;;;;;;;;;;;;;;;5036864;28;19939;-21
2024/01/15 06:29:52;;;;;;;;;;;;;;;;;;5036242;28;19909;-21
2024/01/15 06:32:18;;;;;;;;;;;;;;;;;;5036175;28;20274;-21
2024/01/15 06:34:44;;;;;;;;;;;;;;;;;;5036768;28;19992;-21
2024/01/15 06:37:13;;;;;;;;;;;;;;;;;;5036120;28;19931;-21
2024/01/15 06:39:42;;;;;;;;;;;;;;;;;;5036657;28;19909;-21
2024/01/15 06:42:09;;;;;;;;;;;;;;;;;;5035954;28;20256;-20
2024/01/15 06:44:38;;;;;;;;;;;;;;;;;;5036386;28;19909;-20
2024/01/15 06:47:04;;;;;;;;;;;;;;;;;;5035740;28;19913;-21
2024/01/15 06:49:30;;;;;;;;;;;;;;;;;;5036237;28;20236;-19
2024/01/15 06:51:56;;;;;;;;;;;;;;;;;;5035966;28;19920;-19
2024/01/15 06:54:23;;;;;;;;;;;;;;;;;;5036579;28;19976;-19
2024/01/15 06:56:50;;;;;;;;;;;;;;;;;;5035919;28;19912;-21
2024/01/15 06:59:16;;;;;;;;;;;;;;;;;;5036008;28;19952;-19
2024/01/15 07:01:42;;;;;;;;;;;;;;;;;;5034806;28;19966;-19
2024/01/15 07:04:09;;;;;;;;;;;;;;;;;;5035491;28;19957;-21
2024/01/15 07:06:39;;;;;;;;;;;;;;;;;;5035679;28;19909;-21
2024/01/15 07:09:10;;;;;;;;;;;;;;;;;;5034330;28;20015;-21
2024/01/15 07:11:37;;;;;;;;;;;;;;;;;;5036121;28;19920;-22
2024/01/15 07:14:03;;;;;;;;;;;;;;;;;;5035183;28;20004;-22
2024/01/15 07:16:29;;;;;;;;;;;;;;;;;;5035135;28;19909;-22
2024/01/15 07:18:58;;;;;;;;;;;;;;;;;;5033891;28;19971;-21
2024/01/15 07:21:24;;;;;;;;;;;;;;;;;;5034884;28;19921;-21
2024/01/15 07:23:50;;;;;;;;;;;;;;;;;;5035217;28;19909;-20
2024/01/15 07:26:17;;;;;;;;;;;;;;;;;;5034864;28;20247;-20
2024/01/15 07:28:43;;;;;;;;;;;;;;;;;;5035168;28;19928;-20
2024/01/15 07:31:09;;;;;;;;;;;;;;;;;;5034678;28;19944;-20
2024/01/15 07:33:35;;;;;;;;;;;;;;;;;;5033516;28;19920;-20
2024/01/15 07:36:02;;;;;;;;;;;;;;;;;;5035059;28;19937;-21
2024/01/15 07:38:28;;;;;;;;;;;;;;;;;;5034985;28;19917;-21
2024/01/15 07:40:55;;;;;;;;;;;;;;;;;;5035212;28;20007;-21
2024/01/15 07:43:21;;;;;;;;;;;;;;;;;;5034814;28;19920;-21
2024/01/15 07:45:47;;;;;;;;;;;;;;;;;;5034973;28;19917;-21
2024/01/15 07:48:14;;;;;;;;;;;;;;;;;;5035252;28;20248;-20
2024/01/15 07:50:40;;;;;;;;;;;;;;;;;;5034888;28;19916;-19
2024/01/15 07:53:06;;;;;;;;;;;;;;;;;;5034866;28;19909;-22
2024/01/15 07:55:32;;;;;;;;;;;;;;;;;;5035295;28;19909;-21
2024/01/15 07:58:01;;;;;;;;;;;;;;;;;;5034598;28;19913;-22
2024/01/15 08:00:27;;;;;;;;;;;;;;;;;;5034576;28;20359;-20
2024/01/15 08:02:53;;;;;;;;;;;;;;;;;;5034646;28;19921;-20
2024/01/15 08:05:20;;;;;;;;;;;;;;;;;;5034849;28;20377;-21
2024/01/15 08:07:46;;;;;;;;;;;;;;;;;;5034962;28;19909;-22
2024/01/15 08:10:13;;;;;;;;;;;;;;;;;;5034394;28;20323;-21
2024/01/15 08:12:39;;;;;;;;;;;;;;;;;;5034221;28;19909;-21
2024/01/15 08:15:06;;;;;;;;;;;;;;;;;;5034464;28;19924;-21
2024/01/15 08:17:32;;;;;;;;;;;;;;;;;;5034477;28;20251;-20
2024/01/15 08:19:59;;;;;;;;;;;;;;;;;;5034622;28;19999;-19
2024/01/15 08:22:25;;;;;;;;;;;;;;;;;;5034669;28;19917;-20
2024/01/15 08:24:51;;;;;;;;;;;;;;;;;;5034291;28;19919;-20
2024/01/15 08:27:17;;;;;;;;;;;;;;;;;;5034170;28;20415;-21
2024/01/15 08:29:44;;;;;;;;;;;;;;;;;;5034062;28;19999;-22
2024/01/15 08:32:13;;;;;;;;;;;;;;;;;;5033943;28;20355;-21
2024/01/15 08:34:40;;;;;;;;;;;;;;;;;;5034572;28;20197;-20
2024/01/15 08:37:05;;;;;;;;;;;;;;;;;;5034004;28;20302;-22
2024/01/15 08:39:31;;;;;;;;;;;;;;;;;;5034254;28;19909;-22
2024/01/15 08:41:57;;;;;;;;;;;;;;;;;;5033872;28;20251;-21
2024/01/15 08:44:23;;;;;;;;;;;;;;;;;;5034123;28;19917;-19
2024/01/15 08:46:49;;;;;;;;;;;;;;;;;;5034113;28;19916;-20
2024/01/15 08:49:15;;;;;;;;;;;;;;;;;;5033158;28;19913;-21
2024/01/15 08:51:41;;;;;;;;;;;;;;;;;;5034073;28;20323;-22
2024/01/15 08:54:08;;;;;;;;;;;;;;;;;;5033810;28;19970;-21
2024/01/15 08:56:34;;;;;;;;;;;;;;;;;;5033907;28;20270;-21
2024/01/15 08:59:00;;;;;;;;;;;;;;;;;;5034202;28;20014;-19
2024/01/15 09:01:26;;;;;;;;;;;;;;;;;;5033786;28;19919;-19
2024/01/15 09:03:52;;;;;;;;;;;;;;;;;;5033740;28;19916;-20
2024/01/15 09:06:18;;;;;;;;;;;;;;;;;;5032874;28;19909;-22
2024/01/15 09:08:44;;;;;;;;;;;;;;;;;;5033785;28;19925;-20
2024/01/15 09:11:10;;;;;;;;;;;;;;;;;;5032774;28;19909;-21
2024/01/15 09:13:36;;;;;;;;;;;;;;;;;;5033651;28;20236;-19
2024/01/15 09:16:03;;;;;;;;;;;;;;;;;;5034128;28;19909;-21
2024/01/15 09:18:29;;;;;;;;;;;;;;;;;;5034097;28;19924;-20
2024/01/15 09:20:55;;;;;;;;;;;;;;;;;;5034050;28;20239;-21
2024/01/15 09:23:21;;;;;;;;;;;;;;;;;;5033915;28;19924;-21
2024/01/15 09:25:48;;;;;;;;;;;;;;;;;;5033688;28;19909;-21
2024/01/15 09:28:14;;;;;;;;;;;;;;;;;;5033649;28;19920;-22
2024/01/15 09:30:40;;;;;;;;;;;;;;;;;;5034657;28;19913;-20
2024/01/15 09:33:06;;;;;;;;;;;;;;;;;;5036104;28;19909;-20
2024/01/15 09:35:32;;;;;;;;;;;;;;;;;;5037636;28;20023;-18
2024/01/15 09:37:58;;;;;;;;;;;;;;;;;;5037196;28;20017;-20
2024/01/15 09:40:24;;;;;;;;;;;;;;;;;;5037192;28;20466;-21
2024/01/15 09:42:50;;;;;;;;;;;;;;;;;;5036850;28;19919;-21
2024/01/15 09:45:16;;;;;;;;;;;;;;;;;;5036550;28;19916;-22
2024/01/15 09:47:43;;;;;;;;;;;;;;;;;;5036878;28;20332;-20
2024/01/15 09:50:09;;;;;;;;;;;;;;;;;;5036657;28;19996;-20
2024/01/15 09:52:35;;;;;;;;;;;;;;;;;;5036567;28;19944;-21
2024/01/15 09:55:01;;;;;;;;;;;;;;;;;;5035430;28;19916;-21
2024/01/15 09:57:27;;;;;;;;;;;;;;;;;;5036323;28;19913;-21
2024/01/15 09:59:54;;;;;;;;;;;;;;;;;;5036276;28;19909;-20
2024/01/15 10:02:20;;;;;;;;;;;;;;;;;;5036191;28;20177;-21
2024/01/15 10:04:46;;;;;;;;;;;;;;;;;;5035156;28;20370;-21
2024/01/15 10:07:12;;;;;;;;;;;;;;;;;;5036057;28;19989;-21
2024/01/15 10:09:38;;;;;;;;;;;;;;;;;;5036201;28;19909;-21
2024/01/15 10:12:03;;;;;;;;;;;;;;;;;;5035981;28;19913;-22
2024/01/15 10:14:30;;;;;;;;;;;;;;;;;;5036246;28;19909;-21
2024/01/15 10:16:56;;;;;;;;;;;;;;;;;;5034781;28;19917;-21
2024/01/15 10:19:22;;;;;;;;;;;;;;;;;;5035805;28;19915;-19
2024/01/15 10:21:47;;;;;;;;;;;;;;;;;;5035842;28;19958;-20
2024/01/15 10:24:14;;;;;;;;;;;;;;;;;;5035957;28;20306;-21
2024/01/15 10:26:39;;;;;;;;;;;;;;;;;;5036680;28;19970;-22
2024/01/15 10:29:05;;;;;;;;;;;;;;;;;;5035282;28;19909;-21
2024/01/15 10:31:32;;;;;;;;;;;;;;;;;;5036354;28;19909;-20
2024/01/15 10:33:58;;;;;;;;;;;;;;;;;;5036281;28;19909;-20
2024/01/15 10:36:24;;;;;;;;;;;;;;;;;;5036305;28;19913;-21
2024/01/15 10:38:50;;;;;;;;;;;;;;;;;;5036271;28;19913;-21
2024/01/15 10:41:16;;;;;;;;;;;;;;;;;;5036094;28;19909;-22
2024/01/15 10:43:42;;;;;;;;;;;;;;;;;;5035966;28;19910;-21
2024/01/15 10:46:08;;;;;;;;;;;;;;;;;;5036058;28;19921;-21
2024/01/15 10:48:35;;;;;;;;;;;;;;;;;;5034933;28;19913;-20
2024/01/15 10:51:03;;;;;;;;;;;;;;;;;;5036548;28;19909;-20
2024/01/15 10:53:29;;;;;;;;;;;;;;;;;;5035868;28;19920;-21
2024/01/15 10:55:55;;;;;;;;;;;;;;;;;;5035857;28;19910;-19
2024/01/15 10:58:23;;;;;;;;;;;;;;;;;;5035581;28;19913;-19
2024/01/15 11:00:49;;;;;;;;;;;;;;;;;;5035938;28;19966;-19
2024/01/15 11:03:14;;;;;;;;;;;;;;;;;;5035597;28;19995;-20
2024/01/15 11:05:40;;;;;;;;;;;;;;;;;;5036397;28;20346;-20
2024/01/15 11:08:07;;;;;;;;;;;;;;;;;;5035655;28;19914;-21
2024/01/15 11:10:33;;;;;;;;;;;;;;;;;;5035713;28;20221;-22
2024/01/15 11:12:59;;;;;;;;;;;;;;;;;;5035602;28;19909;-20
2024/01/15 11:15:28;;;;;;;;;;;;;;;;;;5035588;28;20306;-20
2024/01/15 11:17:54;;;;;;;;;;;;;;;;;;5035919;28;19925;-21
2024/01/15 11:20:20;;;;;;;;;;;;;;;;;;5035296;28;19909;-22
2024/01/15 11:22:46;;;;;;;;;;;;;;;;;;5035358;28;19913;-22
2024/01/15 11:25:13;;;;;;;;;;;;;;;;;;5035749;28;19913;-20
2024/01/15 11:27:39;;;;;;;;;;;;;;;;;;5035493;28;19916;-19
2024/01/15 11:30:05;;;;;;;;;;;;;;;;;;5035466;28;19920;-19
2024/01/15 11:32:31;;;;;;;;;;;;;;;;;;5035494;28;19909;-21
2024/01/15 11:35:08;;;;;;;;;;;;;;;;;;5035304;28;19909;-22
2024/01/15 11:37:34;;;;;;;;;;;;;;;;;;5035252;28;19913;-22
2024/01/15 11:40:00;;;;;;;;;;;;;;;;;;5034864;28;20394;-21
2024/01/15 11:42:28;;;;;;;;;;;;;;;;;;5034065;28;20599;-21
2024/01/15 11:44:54;;;;;;;;;;;;;;;;;;5035470;28;19937;-21
2024/01/15 11:47:20;;;;;;;;;;;;;;;;;;5033868;28;20499;-20
2024/01/15 11:49:46;;;;;;;;;;;;;;;;;;5035476;28;19969;-20
2024/01/15 11:52:12;;;;;;;;;;;;;;;;;;5034903;28;19910;-21
2024/01/15 11:54:38;;;;;;;;;;;;;;;;;;5034895;28;20378;-21
2024/01/15 11:57:04;;;;;;;;;;;;;;;;;;5035014;28;20037;-21
2024/01/15 11:59:30;;;;;;;;;;;;;;;;;;5033389;28;19916;-21
2024/01/15 12:01:56;;;;;;;;;;;;;;;;;;5034311;28;19916;-21
2024/01/15 12:04:22;;;;;;;;;;;;;;;;;;5034289;28;19949;-21
2024/01/15 12:06:48;;;;;;;;;;;;;;;;;;5034236;28;19984;-27
2024/01/15 12:09:14;;;;;;;;;;;;;;;;;;5034254;28;19966;-21
2024/01/15 12:11:40;;;;;;;;;;;;;;;;;;5034231;28;19913;-21
2024/01/15 12:14:06;;;;;;;;;;;;;;;;;;5034249;28;19951;-21
2024/01/15 12:16:34;;;;;;;;;;;;;;;;;;5034145;28;19909;-20
2024/01/15 12:19:00;;;;;;;;;;;;;;;;;;5033026;28;19920;-21
2024/01/15 12:21:26;;;;;;;;;;;;;;;;;;5034307;28;19910;-20
2024/01/15 12:23:52;;;;;;;;;;;;;;;;;;5034411;28;19909;-20
2024/01/15 12:26:18;;;;;;;;;;;;;;;;;;5034334;28;19909;-21
2024/01/15 12:28:44;;;;;;;;;;;;;;;;;;5034492;28;19975;-21
2024/01/15 12:31:10;;;;;;;;;;;;;;;;;;5034463;28;19909;-20
2024/01/15 12:33:36;;;;;;;;;;;;;;;;;;5034393;28;20022;-21
2024/01/15 12:36:02;;;;;;;;;;;;;;;;;;5033355;28;19920;-23
2024/01/15 12:38:28;;;;;;;;;;;;;;;;;;5034709;28;19960;-18
2024/01/15 12:40:54;;;;;;;;;;;;;;;;;;5034247;28;19960;-20
2024/01/15 12:43:20;;;;;;;;;;;;;;;;;;5033168;28;19960;-20
2024/01/15 12:45:46;;;;;;;;;;;;;;;;;;5034317;28;19909;-21
2024/01/15 12:48:15;;;;;;;;;;;;;;;;;;5034549;28;19997;-21
2024/01/15 12:50:41;;;;;;;;;;;;;;;;;;5033463;28;20205;-25
2024/01/15 12:53:08;;;;;;;;;;;;;;;;;;5034649;28;19910;-21
2024/01/15 12:55:34;;;;;;;;;;;;;;;;;;5034413;28;19913;-21
2024/01/15 12:58:00;;;;;;;;;;;;;;;;;;5033267;28;19924;-21
2024/01/15 13:00:26;;;;;;;;;;;;;;;;;;5034349;28;19909;-22
2024/01/15 13:02:52;;;;;;;;;;;;;;;;;;5034130;28;19948;-19
2024/01/15 13:05:18;;;;;;;;;;;;;;;;;;5034967;28;19990;-21
2024/01/15 13:07:44;;;;;;;;;;;;;;;;;;5038089;28;19960;-20
2024/01/15 13:10:10;;;;;;;;;;;;;;;;;;5038002;28;20254;-21
2024/01/15 13:12:36;;;;;;;;;;;;;;;;;;5036506;28;19909;-21
2024/01/15 13:15:05;;;;;;;;;;;;;;;;;;5037511;28;19996;-20
2024/01/15 13:17:31;;;;;;;;;;;;;;;;;;5038001;28;19986;-21
2024/01/15 13:19:57;;;;;;;;;;;;;;;;;;5037478;28;19913;-21
2024/01/15 13:22:24;;;;;;;;;;;;;;;;;;5037368;28;20335;-21
2024/01/15 13:24:50;;;;;;;;;;;;;;;;;;5037852;28;19936;-21
2024/01/15 13:27:17;;;;;;;;;;;;;;;;;;5037214;28;20003;-22
2024/01/15 13:29:43;;;;;;;;;;;;;;;;;;5037295;28;20248;-21
2024/01/15 13:32:09;;;;;;;;;;;;;;;;;;5037304;28;19916;-20
2024/01/15 13:34:35;;;;;;;;;;;;;;;;;;5037322;28;19953;-20
2024/01/15 13:37:02;;;;;;;;;;;;;;;;;;5037343;28;19957;-21
2024/01/15 13:39:33;;;;;;;;;;;;;;;;;;5038048;28;19917;-20
2024/01/15 13:41:59;;;;;;;;;;;;;;;;;;5037525;28;19976;-21
2024/01/15 13:44:25;;;;;;;;;;;;;;;;;;5037425;28;20375;-21
2024/01/15 13:46:52;;;;;;;;;;;;;;;;;;5037563;28;19916;-21
2024/01/15 13:49:18;;;;;;;;;;;;;;;;;;5037243;28;19928;-22
2024/01/15 13:51:44;;;;;;;;;;;;;;;;;;5037390;28;19936;-21
2024/01/15 13:54:10;;;;;;;;;;;;;;;;;;5037026;28;19909;-21
2024/01/15 13:56:36;;;;;;;;;;;;;;;;;;5036943;28;20208;-21
2024/01/15 13:59:04;;;;;;;;;;;;;;;;;;5036933;28;19913;-21
2024/01/15 14:01:30;;;;;;;;;;;;;;;;;;5036732;28;19909;-19
2024/01/15 14:03:56;;;;;;;;;;;;;;;;;;5036523;28;19921;-21
2024/01/15 14:06:22;;;;;;;;;;;;;;;;;;5036949;28;19921;-33
2024/01/15 14:08:48;;;;;;;;;;;;;;;;;;5036893;28;19909;-22
2024/01/15 14:11:14;;;;;;;;;;;;;;;;;;5037010;28;19921;-21
2024/01/15 14:13:40;;;;;;;;;;;;;;;;;;5036369;28;19934;-20
2024/01/15 14:16:06;;;;;;;;;;;;;;;;;;5035982;28;19916;-19
2024/01/15 14:18:32;;;;;;;;;;;;;;;;;;5036520;28;19921;-21
2024/01/15 14:20:58;;;;;;;;;;;;;;;;;;5036544;28;19910;-21
2024/01/15 14:23:24;;;;;;;;;;;;;;;;;;5036463;28;20328;-22
2024/01/15 14:25:50;;;;;;;;;;;;;;;;;;5036459;28;19917;-21
2024/01/15 14:28:16;;;;;;;;;;;;;;;;;;5037157;28;20320;-21
2024/01/15 14:30:42;;;;;;;;;;;;;;;;;;5035398;28;19916;-20
2024/01/15 14:33:08;;;;;;;;;;;;;;;;;;5036379;28;19910;-20
2024/01/15 14:35:34;;;;;;;;;;;;;;;;;;5036452;28;19971;-22
2024/01/15 14:38:00;;;;;;;;;;;;;;;;;;5035236;28;20255;-21
2024/01/15 14:40:26;;;;;;;;;;;;;;;;;;5036555;28;19920;-22
2024/01/15 14:42:52;;;;;;;;;;;;;;;;;;5036145;28;19960;-19
2024/01/15 14:45:18;;;;;;;;;;;;;;;;;;5036393;28;19920;-20
2024/01/15 14:47:44;;;;;;;;;;;;;;;;;;5036236;28;19914;-21
2024/01/15 14:50:10;;;;;;;;;;;;;;;;;;5036498;28;20336;-22
2024/01/15 14:52:36;;;;;;;;;;;;;;;;;;5036120;28;20018;-21
2024/01/15 14:55:02;;;;;;;;;;;;;;;;;;5036007;28;19909;-20
2024/01/15 14:57:28;;;;;;;;;;;;;;;;;;5036183;28;20008;-20
2024/01/15 14:59:54;;;;;;;;;;;;;;;;;;5035780;28;19939;-19
2024/01/15 15:02:20;;;;;;;;;;;;;;;;;;5035497;28;19909;-20
2024/01/15 15:04:46;;;;;;;;;;;;;;;;;;5034567;28;20334;-21
2024/01/15 15:07:13;;;;;;;;;;;;;;;;;;5035422;28;19913;-22
2024/01/15 15:09:39;;;;;;;;;;;;;;;;;;5035656;28;19910;-21
2024/01/15 15:12:05;;;;;;;;;;;;;;;;;;5034446;28;20005;-21
2024/01/15 15:14:31;;;;;;;;;;;;;;;;;;5035483;28;20299;-21
2024/01/15 15:16:57;;;;;;;;;;;;;;;;;;5036046;28;20244;-20
2024/01/15 15:19:23;;;;;;;;;;;;;;;;;;5035487;28;19909;-20
2024/01/15 15:21:49;;;;;;;;;;;;;;;;;;5035384;28;19916;-22
2024/01/15 15:24:15;;;;;;;;;;;;;;;;;;5035548;28;19909;-22
2024/01/15 15:26:41;;;;;;;;;;;;;;;;;;5035545;28;19917;-21
2024/01/15 15:29:07;;;;;;;;;;;;;;;;;;5034463;28;19959;-22
2024/01/15 15:31:33;;;;;;;;;;;;;;;;;;5034223;28;19909;-21
2024/01/15 15:33:59;;;;;;;;;;;;;;;;;;5035474;28;19909;-20
2024/01/15 15:36:25;;;;;;;;;;;;;;;;;;5035016;28;19931;-19
2024/01/15 15:38:51;;;;;;;;;;;;;;;;;;5034903;28;19971;-21
2024/01/15 15:41:17;;;;;;;;;;;;;;;;;;5034158;28;19917;-20
2024/01/15 15:43:43;;;;;;;;;;;;;;;;;;5034968;28;19910;-20
2024/01/15 15:46:09;;;;;;;;;;;;;;;;;;5035050;28;19970;-21
2024/01/15 15:48:35;;;;;;;;;;;;;;;;;;5035301;28;20003;-20
2024/01/15 15:51:02;;;;;;;;;;;;;;;;;;5035037;28;19920;-20
2024/01/15 15:53:28;;;;;;;;;;;;;;;;;;5033901;28;19920;-19
2024/01/15 15:55:54;;;;;;;;;;;;;;;;;;5034918;28;19909;-20
2024/01/15 15:58:20;;;;;;;;;;;;;;;;;;5034833;28;19956;-21
2024/01/15 16:00:46;;;;;;;;;;;;;;;;;;5034889;28;19931;-21
2024/01/15 16:03:12;;;;;;;;;;;;;;;;;;5034588;28;19925;-21
2024/01/15 16:05:38;;;;;;;;;;;;;;;;;;5035527;28;19916;-21
2024/01/15 16:08:04;;;;;;;;;;;;;;;;;;5034753;28;20364;-19
2024/01/15 16:10:30;;;;;;;;;;;;;;;;;;5035037;28;19963;-20
2024/01/15 16:12:56;;;;;;;;;;;;;;;;;;5033221;28;20294;-21
2024/01/15 16:15:22;;;;;;;;;;;;;;;;;;5034316;28;20000;-21
2024/01/15 16:17:48;;;;;;;;;;;;;;;;;;5032677;28;20340;-21
2024/01/15 16:20:14;;;;;;;;;;;;;;;;;;5034352;28;19921;-22
2024/01/15 16:22:41;;;;;;;;;;;;;;;;;;5033634;28;19924;-21
2024/01/15 16:25:07;;;;;;;;;;;;;;;;;;5034065;28;19909;-20
2024/01/15 16:27:32;;;;;;;;;;;;;;;;;;5033699;28;20259;-20
2024/01/15 16:29:58;;;;;;;;;;;;;;;;;;5032522;28;19968;-20
2024/01/15 16:32:24;;;;;;;;;;;;;;;;;;5032466;28;19920;-20
2024/01/15 16:34:50;;;;;;;;;;;;;;;;;;5033526;28;19909;-21
2024/01/15 16:37:16;;;;;;;;;;;;;;;;;;5034990;28;20247;-19